createdAt,value
2023-04-08T00:02:04.139Z,3.65
2023-04-08T00:05:13.089Z,3.63
2023-04-08T00:08:18.939Z,3.70
2023-04-08T00:11:24.317Z,3.65
2023-04-08T00:14:29.902Z,3.42
2023-04-08T00:17:35.603Z,3.88
2023-04-08T00:20:43.547Z,4.00
2023-04-08T00:23:48.557Z,4.20
2023-04-08T00:26:54.148Z,5.15
2023-04-08T00:30:00.386Z,4.43
2023-04-08T00:33:05.772Z,3.65
2023-04-08T00:36:13.658Z,3.78
2023-04-08T00:39:18.940Z,3.55
2023-04-08T00:42:24.320Z,4.18
2023-04-08T00:45:29.712Z,4.00
2023-04-08T00:48:35.524Z,3.83
2023-04-08T00:51:43.600Z,4.03
2023-04-08T00:54:49.396Z,4.03
2023-04-08T00:57:54.808Z,4.13
2023-04-08T01:01:02.697Z,4.55
2023-04-08T01:04:11.086Z,3.65
2023-04-08T01:10:25.578Z,4.10
2023-04-08T01:13:33.358Z,4.05
2023-04-08T01:16:39.336Z,4.30
2023-04-08T01:19:45.294Z,4.45
2023-04-08T01:22:58.493Z,4.47
2023-04-08T01:26:06.777Z,4.43
2023-04-08T01:29:12.210Z,4.00
2023-04-08T01:32:18.027Z,4.03
2023-04-08T01:35:23.863Z,4.55
2023-04-08T01:38:29.537Z,4.75
2023-04-08T01:41:39.316Z,5.45
2023-04-08T01:44:45.853Z,5.05
2023-04-08T01:47:52.438Z,5.20
2023-04-08T01:50:58.819Z,5.22
2023-04-08T01:54:04.459Z,5.38
2023-04-08T01:57:14.655Z,4.43
2023-04-08T02:00:22.735Z,4.00
2023-04-08T02:03:31.419Z,4.10
2023-04-08T02:06:37.209Z,4.00
2023-04-08T02:09:42.660Z,3.58
2023-04-08T02:12:50.666Z,4.00
2023-04-08T02:16:00.228Z,4.07
2023-04-08T02:19:09.760Z,4.30
2023-04-08T02:22:20.091Z,4.40
2023-04-08T02:25:27.753Z,4.47
2023-04-08T02:28:37.699Z,4.82
2023-04-08T02:31:44.701Z,5.05
2023-04-08T02:34:53.601Z,6.22
2023-04-08T02:37:58.817Z,4.60
2023-04-08T02:41:04.371Z,4.75
2023-04-08T02:44:12.136Z,4.25
2023-04-08T02:47:19.566Z,4.95
2023-04-08T02:50:24.938Z,4.50
2023-04-08T02:53:30.516Z,4.55
2023-04-08T02:56:36.301Z,4.25
2023-04-08T02:59:44.169Z,4.30
2023-04-08T03:02:49.732Z,5.30
2023-04-08T03:05:55.421Z,4.30
2023-04-08T03:09:00.808Z,4.30
2023-04-08T03:12:06.315Z,4.78
2023-04-08T03:15:14.646Z,4.68
2023-04-08T03:18:20.288Z,4.13
2023-04-08T03:21:25.549Z,4.88
2023-04-08T03:24:30.966Z,4.18
2023-04-08T03:27:36.530Z,4.72
2023-04-08T03:30:44.425Z,5.00
2023-04-08T03:33:49.587Z,4.87
2023-04-08T03:36:54.988Z,4.68
2023-04-08T03:40:00.141Z,4.50
2023-04-08T03:43:06.368Z,4.82
2023-04-08T03:46:14.341Z,4.72
2023-04-08T03:49:19.891Z,5.35
2023-04-08T03:52:26.511Z,5.00
2023-04-08T03:55:31.698Z,5.28
2023-04-08T03:58:37.323Z,5.50
2023-04-08T04:01:47.743Z,5.40
2023-04-08T04:04:53.564Z,6.32
2023-04-08T04:07:58.981Z,5.13
2023-04-08T04:11:04.439Z,5.47
2023-04-08T04:14:09.617Z,4.60
2023-04-08T04:17:17.680Z,5.50
2023-04-08T04:20:23.042Z,5.05
2023-04-08T04:23:28.477Z,5.57
2023-04-08T04:26:33.812Z,6.47
2023-04-08T04:29:39.602Z,5.97
2023-04-08T04:32:47.749Z,5.85
2023-04-08T04:35:53.355Z,5.32
2023-04-08T04:38:58.492Z,6.80
2023-04-08T04:42:04.093Z,5.68
2023-04-08T04:45:09.845Z,5.82
2023-04-08T04:48:18.042Z,5.53
2023-04-08T04:51:23.306Z,6.22
2023-04-08T04:54:28.824Z,6.80
2023-04-08T04:57:34.271Z,5.95
2023-04-08T05:00:39.669Z,6.60
2023-04-08T05:03:47.727Z,6.70
2023-04-08T05:06:53.595Z,6.65
2023-04-08T05:09:59.293Z,6.63
2023-04-08T05:13:04.521Z,6.57
2023-04-08T05:16:10.128Z,6.47
2023-04-08T05:19:18.389Z,6.53
2023-04-08T05:22:23.896Z,6.97
2023-04-08T05:25:29.435Z,6.50
2023-04-08T05:28:34.650Z,6.97
2023-04-08T05:31:40.027Z,7.28
2023-04-08T05:34:47.900Z,7.10
2023-04-08T05:37:53.101Z,6.85
2023-04-08T05:40:58.269Z,6.65
2023-04-08T05:44:03.752Z,6.68
2023-04-08T05:47:09.183Z,7.22
2023-04-08T05:50:17.249Z,8.60
2023-04-08T05:53:22.563Z,8.13
2023-04-08T05:56:27.923Z,7.90
2023-04-08T05:59:33.573Z,8.93
2023-04-08T06:02:38.993Z,8.10
2023-04-08T06:05:47.032Z,8.88
2023-04-08T06:08:53.000Z,8.23
2023-04-08T06:11:58.913Z,8.95
2023-04-08T06:15:04.827Z,9.52
2023-04-08T06:18:10.449Z,8.25
2023-04-08T06:21:18.323Z,9.23
2023-04-08T06:24:23.924Z,8.80
2023-04-08T06:27:29.186Z,9.52
2023-04-08T06:30:34.486Z,9.73
2023-04-08T06:33:40.131Z,9.93
2023-04-08T06:36:48.769Z,9.50
2023-04-08T06:42:59.239Z,8.00
2023-04-08T06:46:14.171Z,7.97
2023-04-08T06:49:19.667Z,9.15
2023-04-08T06:52:27.758Z,7.82
2023-04-08T06:55:33.096Z,9.02
2023-04-08T06:58:38.688Z,9.52
2023-04-08T07:01:43.999Z,8.10
2023-04-08T07:04:49.942Z,7.95
2023-04-08T07:07:58.096Z,7.10
2023-04-08T07:11:03.684Z,7.40
2023-04-08T07:14:08.926Z,7.50
2023-04-08T07:17:14.414Z,7.38
2023-04-08T07:20:19.590Z,7.90
2023-04-08T07:23:27.876Z,6.35
2023-04-08T07:26:33.073Z,7.28
2023-04-08T07:29:38.363Z,6.65
2023-04-08T07:32:43.523Z,7.97
2023-04-08T07:35:48.869Z,7.90
2023-04-08T07:38:56.756Z,8.27
2023-04-08T07:42:02.275Z,8.05
2023-04-08T07:45:07.725Z,6.88
2023-04-08T07:48:13.065Z,5.97
2023-04-08T07:51:20.429Z,6.72
2023-04-08T07:54:29.412Z,8.25
2023-04-08T07:57:34.648Z,7.00
2023-04-08T08:00:41.450Z,7.40
2023-04-08T08:03:48.320Z,6.13
2023-04-08T08:06:54.524Z,6.20
2023-04-08T08:10:02.421Z,7.05
2023-04-08T08:13:08.271Z,5.97
2023-04-08T08:16:14.169Z,6.13
2023-04-08T08:19:19.525Z,6.35
2023-04-08T08:22:25.033Z,7.00
2023-04-08T08:25:33.142Z,6.18
2023-04-08T08:28:38.475Z,5.88
2023-04-08T08:31:44.192Z,4.60
2023-04-08T08:34:50.089Z,5.03
2023-04-08T08:37:55.364Z,5.30
2023-04-08T08:41:05.106Z,5.40
2023-04-08T08:44:10.941Z,5.75
2023-04-08T08:47:16.351Z,6.10
2023-04-08T08:50:21.826Z,5.47
2023-04-08T08:53:35.033Z,4.03
2023-04-08T08:56:43.902Z,3.78
2023-04-08T08:59:49.810Z,3.63
2023-04-08T09:02:55.253Z,3.90
2023-04-08T09:06:01.583Z,3.53
2023-04-08T09:09:10.872Z,3.55
2023-04-08T09:12:18.753Z,3.85
2023-04-08T09:15:24.515Z,3.90
2023-04-08T09:18:30.033Z,9.35
2023-04-08T09:21:35.577Z,3.88
2023-04-08T09:24:41.299Z,3.78
2023-04-08T09:27:49.354Z,4.28
2023-04-08T09:30:54.695Z,4.45
2023-04-08T09:34:00.704Z,4.60
2023-04-08T09:37:06.131Z,3.50
2023-04-08T09:40:14.077Z,4.40
2023-04-08T09:43:24.006Z,3.75
2023-04-08T09:46:30.206Z,4.13
2023-04-08T09:49:39.823Z,4.45
2023-04-08T09:52:47.627Z,4.63
2023-04-08T09:55:54.656Z,5.97
2023-04-08T09:59:03.992Z,6.25
2023-04-08T10:02:13.183Z,5.90
2023-04-08T10:05:20.405Z,6.90
2023-04-08T10:08:27.437Z,6.30
2023-04-08T10:11:33.437Z,6.35
2023-04-08T10:14:42.235Z,6.63
2023-04-08T10:17:47.837Z,6.50
2023-04-08T10:20:53.382Z,6.45
2023-04-08T10:24:00.477Z,6.93
2023-04-08T10:27:06.859Z,7.40
2023-04-08T10:30:40.504Z,8.20
2023-04-08T10:33:45.801Z,6.72
2023-04-08T10:36:51.399Z,7.00
2023-04-08T10:39:57.676Z,6.40
2023-04-08T10:43:03.360Z,6.90
2023-04-08T10:46:13.323Z,5.93
2023-04-08T10:49:19.214Z,6.25
2023-04-08T10:52:24.572Z,6.40
2023-04-08T10:55:30.670Z,7.13
2023-04-08T10:58:36.734Z,5.90
2023-04-08T11:01:45.465Z,5.70
2023-04-08T11:04:51.110Z,6.38
2023-04-08T11:07:56.913Z,6.70
2023-04-08T11:11:03.005Z,6.80
2023-04-08T11:14:08.882Z,6.50
2023-04-08T11:17:18.424Z,6.07
2023-04-08T11:20:24.113Z,6.43
2023-04-08T11:23:29.687Z,6.60
2023-04-08T11:26:34.934Z,6.13
2023-04-08T11:29:41.030Z,7.10
2023-04-08T11:32:49.551Z,7.25
2023-04-08T11:35:55.025Z,7.05
2023-04-08T11:39:00.541Z,6.88
2023-04-08T11:42:08.037Z,6.05
2023-04-08T11:45:14.071Z,6.90
2023-04-08T11:48:22.347Z,6.30
2023-04-08T11:51:28.285Z,6.15
2023-04-08T11:54:34.604Z,7.20
2023-04-08T11:57:39.875Z,6.72
2023-04-08T12:00:46.038Z,6.82
2023-04-08T12:04:07.345Z,6.07
2023-04-08T12:07:12.887Z,6.35
2023-04-08T12:10:18.528Z,6.38
2023-04-08T12:13:24.206Z,6.18
2023-04-08T12:16:29.833Z,6.00
2023-04-08T12:19:38.559Z,6.15
2023-04-08T12:22:44.043Z,5.95
2023-04-08T12:25:49.606Z,6.25
2023-04-08T12:28:58.181Z,6.20
2023-04-08T12:32:04.901Z,6.88
2023-04-08T12:35:12.904Z,6.27
2023-04-08T12:38:18.228Z,6.95
2023-04-08T12:41:23.940Z,6.50
2023-04-08T12:44:29.298Z,6.95
2023-04-08T12:47:34.799Z,7.20
2023-04-08T12:50:42.688Z,6.57
2023-04-08T12:53:48.116Z,6.85
2023-04-08T12:56:53.432Z,6.38
2023-04-08T12:59:58.833Z,6.85
2023-04-08T13:03:04.080Z,7.32
2023-04-08T13:06:12.687Z,7.10
2023-04-08T13:09:18.775Z,7.05
2023-04-08T13:12:24.198Z,6.60
2023-04-08T13:15:29.357Z,6.60
2023-04-08T13:18:34.685Z,6.18
2023-04-08T13:21:44.986Z,7.15
2023-04-08T13:24:51.794Z,6.55
2023-04-08T13:27:57.063Z,7.10
2023-04-08T13:31:02.735Z,6.85
2023-04-08T13:34:07.974Z,7.85
2023-04-08T13:37:16.172Z,7.38
2023-04-08T13:40:21.688Z,7.78
2023-04-08T13:43:27.190Z,7.68
2023-04-08T13:46:32.246Z,7.70
2023-04-08T13:49:37.684Z,8.05
2023-04-08T13:52:45.467Z,7.47
2023-04-08T13:55:55.524Z,7.25
2023-04-08T13:59:00.990Z,8.48
2023-04-08T14:02:07.142Z,8.30
2023-04-08T14:05:12.433Z,8.07
2023-04-08T14:08:25.865Z,7.55
2023-04-08T14:11:31.412Z,7.15
2023-04-08T14:14:37.093Z,7.55
2023-04-08T14:17:42.361Z,7.20
2023-04-08T14:20:48.060Z,7.28
2023-04-08T14:23:55.977Z,6.57
2023-04-08T14:27:01.247Z,6.82
2023-04-08T14:30:07.003Z,7.13
2023-04-08T14:33:12.458Z,7.13
2023-04-08T14:36:17.901Z,6.28
2023-04-08T14:39:26.536Z,6.55
2023-04-08T14:42:31.895Z,5.97
2023-04-08T14:45:37.392Z,5.72
2023-04-08T14:48:42.554Z,5.68
2023-04-08T14:51:48.158Z,7.22
2023-04-08T14:54:56.325Z,6.47
2023-04-08T14:58:01.875Z,5.75
2023-04-08T15:01:08.030Z,7.05
2023-04-08T15:04:13.649Z,7.03
2023-04-08T15:07:19.369Z,7.38
2023-04-08T15:10:28.372Z,5.93
2023-04-08T15:13:36.474Z,7.85
2023-04-08T15:16:41.704Z,5.97
2023-04-08T15:19:47.367Z,5.60
2023-04-08T15:22:52.560Z,5.20
2023-04-08T15:26:00.374Z,6.90
2023-04-08T15:29:05.558Z,5.95
2023-04-08T15:32:10.972Z,6.60
2023-04-08T15:35:16.554Z,5.88
2023-04-08T15:38:22.422Z,5.85
2023-04-08T15:41:30.294Z,6.35
2023-04-08T15:44:35.687Z,5.97
2023-04-08T15:47:42.095Z,5.45
2023-04-08T15:50:47.768Z,5.57
2023-04-08T15:53:53.443Z,8.07
2023-04-08T15:57:03.083Z,7.20
2023-04-08T16:00:13.189Z,6.45
2023-04-08T16:03:20.004Z,8.02
2023-04-08T16:06:26.074Z,7.10
2023-04-08T16:09:31.794Z,6.85
2023-04-08T16:12:39.612Z,7.03
2023-04-08T16:15:45.653Z,7.20
2023-04-08T16:18:51.063Z,7.30
2023-04-08T16:21:56.990Z,7.57
2023-04-08T16:25:02.430Z,6.50
2023-04-08T16:28:11.612Z,7.05
2023-04-08T16:31:18.227Z,8.13
2023-04-08T16:34:24.013Z,8.07
2023-04-08T16:37:29.366Z,7.85
2023-04-08T16:40:35.697Z,8.73
2023-04-08T16:43:43.752Z,7.45
2023-04-08T16:46:49.431Z,7.50
2023-04-08T16:49:55.031Z,8.38
2023-04-08T16:53:00.410Z,7.60
2023-04-08T16:56:05.955Z,8.77
2023-04-08T16:59:13.849Z,8.82
2023-04-08T17:02:19.298Z,9.02
2023-04-08T17:05:25.653Z,8.10
2023-04-08T17:08:31.159Z,7.72
2023-04-08T17:11:36.772Z,7.80
2023-04-08T17:14:45.548Z,9.38
2023-04-08T17:17:50.829Z,9.18
2023-04-08T17:20:56.319Z,9.95
2023-04-08T17:24:01.955Z,9.88
2023-04-08T17:27:07.556Z,9.00
2023-04-08T17:30:15.996Z,9.90
2023-04-08T17:36:28.581Z,10.13
2023-04-08T17:39:41.121Z,9.77
2023-04-08T17:42:46.339Z,10.75
2023-04-08T17:45:54.589Z,9.80
2023-04-08T17:52:05.131Z,10.57
2023-04-08T17:55:11.138Z,10.73
2023-04-08T17:58:17.737Z,10.57
2023-04-08T18:01:25.675Z,10.77
2023-04-08T18:04:31.809Z,10.30
2023-04-08T18:07:37.552Z,11.65
2023-04-08T18:10:44.335Z,10.70
2023-04-08T18:13:51.277Z,10.85
2023-04-08T18:16:59.735Z,10.73
2023-04-08T18:20:04.940Z,10.48
2023-04-08T18:23:10.117Z,10.25
2023-04-08T18:26:15.774Z,9.93
2023-04-08T18:29:21.485Z,10.70
2023-04-08T18:32:29.605Z,10.27
2023-04-08T18:35:34.823Z,11.00
2023-04-08T18:38:41.293Z,10.35
2023-04-08T18:41:46.601Z,10.60
2023-04-08T18:44:52.185Z,10.23
2023-04-08T18:48:00.222Z,9.73
2023-04-08T18:51:05.720Z,10.10
2023-04-08T18:54:10.844Z,9.70
2023-04-08T18:57:16.384Z,9.55
2023-04-08T19:00:21.803Z,10.15
2023-04-08T19:03:29.884Z,9.93
2023-04-08T19:06:37.762Z,11.35
2023-04-08T19:09:43.510Z,11.18
2023-04-08T19:12:49.123Z,10.48
2023-04-08T19:15:55.052Z,10.82
2023-04-08T19:19:02.874Z,12.00
2023-04-08T19:22:08.138Z,11.57
2023-04-08T19:25:13.329Z,12.98
2023-04-08T19:28:18.485Z,11.80
2023-04-08T19:31:23.807Z,13.00
2023-04-08T19:34:31.959Z,12.18
2023-04-08T19:37:37.448Z,14.18
2023-04-08T19:40:43.333Z,12.75
2023-04-08T19:43:48.491Z,12.07
2023-04-08T19:46:54.048Z,11.00
2023-04-08T19:50:02.139Z,12.05
2023-04-08T19:56:13.136Z,11.52
2023-04-08T19:59:19.570Z,10.77
2023-04-08T20:02:25.699Z,11.20
2023-04-08T20:05:34.141Z,11.05
2023-04-08T20:08:39.496Z,10.63
2023-04-08T20:11:45.242Z,11.20
2023-04-08T20:14:50.891Z,10.77
2023-04-08T20:17:57.287Z,10.57
2023-04-08T20:21:05.737Z,11.32
2023-04-08T20:24:11.087Z,10.93
2023-04-08T20:27:16.966Z,11.90
2023-04-08T20:30:22.233Z,10.73
2023-04-08T20:33:27.626Z,11.52
2023-04-08T20:36:35.469Z,10.85
2023-04-08T20:39:40.778Z,9.90
2023-04-08T20:42:46.012Z,12.75
2023-04-08T20:45:51.493Z,10.32
2023-04-08T20:48:57.552Z,11.32
2023-04-08T20:52:05.737Z,10.45
2023-04-08T20:55:11.675Z,11.20
2023-04-08T20:58:17.209Z,10.55
2023-04-08T21:01:22.319Z,10.43
2023-04-08T21:04:27.557Z,10.32
2023-04-08T21:07:36.026Z,10.63
2023-04-08T21:13:48.908Z,10.93
2023-04-08T21:16:54.883Z,10.77
2023-04-08T21:20:00.330Z,10.30
2023-04-08T21:23:08.573Z,10.65
2023-04-08T21:26:14.231Z,10.27
2023-04-08T21:29:19.610Z,10.90
2023-04-08T21:32:25.056Z,10.70
2023-04-08T21:35:30.386Z,10.10
2023-04-08T21:38:38.263Z,10.70
2023-04-08T21:41:43.573Z,10.80
2023-04-08T21:44:48.834Z,9.82
2023-04-08T21:47:55.478Z,9.75
2023-04-08T21:51:01.355Z,9.60
2023-04-08T21:54:09.283Z,10.65
2023-04-08T21:57:14.488Z,10.45
2023-04-08T22:00:19.731Z,10.57
2023-04-08T22:03:44.384Z,10.07
2023-04-08T22:06:51.630Z,12.45
2023-04-08T22:10:01.683Z,11.25
2023-04-08T22:13:08.413Z,10.82
2023-04-08T22:16:13.848Z,10.13
2023-04-08T22:19:19.262Z,9.50
2023-04-08T22:22:24.642Z,10.52
2023-04-08T22:25:32.347Z,10.05
2023-04-08T22:28:38.076Z,10.10
2023-04-08T22:31:43.480Z,9.43
2023-04-08T22:34:48.729Z,10.07
2023-04-08T22:37:54.140Z,12.70
2023-04-08T22:41:02.234Z,9.95
2023-04-08T22:44:07.817Z,11.10
2023-04-08T22:47:13.166Z,10.65
2023-04-08T22:50:18.724Z,10.80
2023-04-08T22:53:23.973Z,10.13
2023-04-08T22:56:32.187Z,10.93
2023-04-08T22:59:37.350Z,10.77
2023-04-08T23:02:43.236Z,10.77
2023-04-08T23:05:48.663Z,11.38
2023-04-08T23:08:54.199Z,11.65
2023-04-08T23:12:02.421Z,11.82
2023-04-08T23:15:08.696Z,11.43
2023-04-08T23:18:13.979Z,12.63
2023-04-08T23:21:20.653Z,12.88
2023-04-08T23:24:26.128Z,12.88
2023-04-08T23:27:33.886Z,11.93
2023-04-08T23:30:39.699Z,13.18
2023-04-08T23:33:45.158Z,12.13
2023-04-08T23:36:50.625Z,12.88
2023-04-08T23:39:55.748Z,12.35
2023-04-08T23:43:04.037Z,12.75
2023-04-08T23:46:09.454Z,12.80
2023-04-08T23:49:14.749Z,11.52
2023-04-08T23:52:20.298Z,12.35
2023-04-08T23:55:25.930Z,13.60
2023-04-08T23:58:33.811Z,12.77
